Time;durP1;ratioP1;P1;durP2;ratioP2;P2;SDS_P1;SDS_P2;PMS_P1;PMS_P2;Temp;Humidity;BMP_temperature;BMP_pressure;BME280_temperature;BME280_humidity;BME280_pressure;Samples;Min_cycle;Max_cycle;Signal;HPM_P1;HPM_P2
2023/12/10 00:00:41;;;;;;;8.90;4.43;;;8.60;99.90;;;;;;4879713;28;94304;-33
2023/12/10 00:03:06;;;;;;;23.92;4.93;;;8.60;99.90;;;;;;4878682;28;94587;-31
2023/12/10 00:05:32;;;;;;;17.30;5.18;;;8.50;99.90;;;;;;4879978;28;94571;-34
2023/12/10 00:07:58;;;;;;;13.48;3.30;;;8.50;99.90;;;;;;4879829;28;94681;-31
2023/12/10 00:10:24;;;;;;;17.83;5.07;;;8.50;99.90;;;;;;4879907;28;92581;-31
2023/12/10 00:12:49;;;;;;;16.48;6.40;;;8.50;99.90;;;;;;4879385;28;95059;-33
2023/12/10 00:15:15;;;;;;;15.82;4.80;;;8.50;99.90;;;;;;4879173;28;94301;-30
2023/12/10 00:17:41;;;;;;;15.18;5.03;;;8.40;99.90;;;;;;4879516;28;94451;-33
2023/12/10 00:20:07;;;;;;;11.75;5.63;;;8.40;99.90;;;;;;4879155;28;95078;-32
2023/12/10 00:22:33;;;;;;;10.15;3.30;;;8.50;99.90;;;;;;4878646;28;94592;-33
2023/12/10 00:24:59;;;;;;;24.02;4.22;;;8.50;99.90;;;;;;4879017;28;94621;-32
2023/12/10 00:27:24;;;;;;;10.65;3.92;;;8.50;99.90;;;;;;4878950;28;93491;-30
2023/12/10 00:29:50;;;;;;;16.63;5.95;;;8.40;99.90;;;;;;4880007;28;92356;-32
2023/12/10 00:32:16;;;;;;;10.57;3.85;;;8.40;99.90;;;;;;4878852;28;95715;-32
2023/12/10 00:34:41;;;;;;;11.85;5.88;;;8.40;99.90;;;;;;4881492;28;94540;-31
2023/12/10 00:37:07;;;;;;;15.15;5.13;;;8.40;99.90;;;;;;4882629;28;92423;-32
2023/12/10 00:39:33;;;;;;;17.55;5.90;;;8.40;99.90;;;;;;4882359;28;92256;-31
2023/12/10 00:41:58;;;;;;;19.38;4.85;;;8.40;99.90;;;;;;4881769;28;96160;-34
2023/12/10 00:44:24;;;;;;;15.43;4.65;;;8.40;99.90;;;;;;4882411;28;96016;-32
2023/12/10 00:46:50;;;;;;;15.98;5.72;;;8.40;99.90;;;;;;4882661;28;93323;-30
2023/12/10 00:49:15;;;;;;;26.67;5.75;;;8.40;99.90;;;;;;4882543;28;93508;-31
2023/12/10 00:51:41;;;;;;;14.98;5.82;;;8.40;99.90;;;;;;4882079;28;94364;-32
2023/12/10 00:54:06;;;;;;;12.55;4.57;;;8.40;99.90;;;;;;4882861;28;94835;-29
2023/12/10 00:56:33;;;;;;;8.50;3.65;;;8.50;99.90;;;;;;4882337;28;92879;-32
2023/12/10 00:58:59;;;;;;;13.50;5.18;;;8.60;99.90;;;;;;4882468;28;93383;-34
2023/12/10 01:01:25;;;;;;;13.55;5.47;;;8.60;99.90;;;;;;4881559;28;95142;-33
2023/12/10 01:03:51;;;;;;;13.40;5.95;;;8.60;99.90;;;;;;4882164;28;94505;-34
2023/12/10 01:06:16;;;;;;;10.70;4.85;;;8.70;99.90;;;;;;4881445;28;95785;-31
2023/12/10 01:08:43;;;;;;;14.90;4.90;;;8.70;99.90;;;;;;4882310;28;93761;-31
2023/12/10 01:11:09;;;;;;;18.95;5.55;;;8.60;99.90;;;;;;4881967;28;95415;-34
2023/12/10 01:13:35;;;;;;;10.40;4.28;;;8.60;99.90;;;;;;4882635;28;94968;-31
2023/12/10 01:16:01;;;;;;;12.10;4.80;;;8.60;99.90;;;;;;4881318;28;94181;-32
2023/12/10 01:18:26;;;;;;;16.30;4.10;;;8.50;99.90;;;;;;4882651;28;92508;-31
2023/12/10 01:20:52;;;;;;;5.57;4.00;;;8.50;99.90;;;;;;4881449;28;94715;-31
2023/12/10 01:23:18;;;;;;;16.52;5.63;;;8.40;99.90;;;;;;4883328;28;96799;-33
2023/12/10 01:25:44;;;;;;;27.65;5.70;;;8.30;99.90;;;;;;4882726;28;94362;-30
2023/12/10 01:28:10;;;;;;;5.38;3.03;;;8.30;99.90;;;;;;4881595;28;93084;-34
2023/12/10 01:30:36;;;;;;;11.80;4.47;;;8.30;99.90;;;;;;4881240;28;95972;-33
2023/12/10 01:33:02;;;;;;;11.48;4.20;;;8.20;99.90;;;;;;4881165;28;95271;-30
2023/12/10 01:35:28;;;;;;;7.85;3.10;;;8.20;99.90;;;;;;4881426;28;94850;-34
2023/12/10 01:37:54;;;;;;;8.02;2.97;;;8.20;99.90;;;;;;4882107;28;93871;-34
2023/12/10 01:40:20;;;;;;;8.00;3.90;;;8.20;99.90;;;;;;4880743;28;93835;-32
2023/12/10 01:42:46;;;;;;;8.40;3.40;;;8.20;99.90;;;;;;4882222;28;94485;-32
2023/12/10 01:45:12;;;;;;;12.35;4.18;;;8.10;99.90;;;;;;4881094;28;92380;-32
2023/12/10 01:47:41;;;;;;;11.15;3.67;;;8.10;99.90;;;;;;4882294;28;93398;-34
2023/12/10 01:50:11;;;;;;;13.30;3.50;;;8.00;99.90;;;;;;4881278;28;95199;-32
2023/12/10 01:52:40;;;;;;;5.25;3.22;;;8.00;99.90;;;;;;4881263;28;94559;-32
2023/12/10 01:55:09;;;;;;;13.50;4.00;;;8.00;99.90;;;;;;4881194;28;94019;-31
2023/12/10 01:57:36;;;;;;;11.40;3.80;;;7.90;99.90;;;;;;4881920;28;94162;-30
2023/12/10 02:00:05;;;;;;;8.40;3.08;;;8.00;99.90;;;;;;4881411;28;94669;-31
2023/12/10 02:02:32;;;;;;;9.82;4.10;;;8.00;99.90;;;;;;4882053;28;96336;-34
2023/12/10 02:05:06;;;;;;;4.53;2.80;;;7.90;99.90;;;;;;4880874;28;94227;-34
2023/12/10 02:07:32;;;;;;;8.98;4.57;;;7.90;99.90;;;;;;4881578;28;92299;-31
2023/12/10 02:09:58;;;;;;;14.30;5.25;;;7.90;99.90;;;;;;4880738;28;94942;-31
2023/12/10 02:12:24;;;;;;;9.70;4.22;;;7.90;99.90;;;;;;4881407;28;94920;-34
2023/12/10 02:14:50;;;;;;;11.18;4.22;;;7.90;99.90;;;;;;4881634;28;95333;-31
2023/12/10 02:17:16;;;;;;;23.13;4.28;;;7.90;99.90;;;;;;4880328;28;93816;-31
2023/12/10 02:19:42;;;;;;;14.55;4.70;;;7.90;99.90;;;;;;4880629;28;96751;-31
2023/12/10 02:22:11;;;;;;;17.83;4.22;;;7.90;99.90;;;;;;4880442;28;96364;-30
2023/12/10 02:25:05;;;;;;;10.45;4.80;;;7.90;99.90;;;;;;4880991;28;93260;-32
2023/12/10 02:27:31;;;;;;;24.80;4.38;;;7.80;99.90;;;;;;4878671;28;94578;-34
2023/12/10 02:29:57;;;;;;;12.15;3.72;;;7.80;99.90;;;;;;4880731;28;96265;-33
2023/12/10 02:32:23;;;;;;;10.35;4.45;;;7.80;99.90;;;;;;4880110;28;94035;-30
2023/12/10 02:34:48;;;;;;;7.93;3.42;;;7.80;99.90;;;;;;4881570;28;92161;-31
2023/12/10 02:37:14;;;;;;;15.23;4.03;;;7.80;99.90;;;;;;4880611;28;93736;-32
2023/12/10 02:39:41;;;;;;;21.83;6.25;;;7.80;99.90;;;;;;4880684;28;94229;-33
2023/12/10 02:42:06;;;;;;;7.90;2.88;;;7.80;99.90;;;;;;4880455;28;94723;-31
2023/12/10 02:44:32;;;;;;;13.88;6.32;;;7.80;99.90;;;;;;4880192;28;94153;-32
2023/12/10 02:46:57;;;;;;;17.33;5.32;;;7.80;99.90;;;;;;4881122;28;94753;-31
2023/12/10 02:49:23;;;;;;;11.70;3.53;;;7.80;99.90;;;;;;4880467;28;94707;-32
2023/12/10 02:51:49;;;;;;;17.20;5.00;;;7.80;99.90;;;;;;4880373;28;94906;-33
2023/12/10 02:54:14;;;;;;;9.30;3.38;;;7.80;99.90;;;;;;4881197;28;92717;-31
2023/12/10 02:56:40;;;;;;;19.30;6.05;;;7.80;99.90;;;;;;4879671;28;93758;-30
2023/12/10 02:59:06;;;;;;;11.23;3.65;;;7.90;99.90;;;;;;4880908;28;95076;-31
2023/12/10 03:01:31;;;;;;;17.95;4.15;;;7.80;99.90;;;;;;4880950;28;94237;-32
2023/12/10 03:03:57;;;;;;;7.65;4.20;;;7.80;99.90;;;;;;4880490;28;92130;-32
2023/12/10 03:06:22;;;;;;;14.10;4.07;;;7.80;99.90;;;;;;4879548;28;93622;-31
2023/12/10 03:08:48;;;;;;;10.25;4.30;;;7.80;99.90;;;;;;4880234;28;96334;-31
2023/12/10 03:11:14;;;;;;;27.90;6.40;;;7.80;99.90;;;;;;4879914;28;95649;-31
2023/12/10 03:13:40;;;;;;;16.90;4.53;;;7.80;99.90;;;;;;4880497;28;94458;-34
2023/12/10 03:16:05;;;;;;;10.57;4.22;;;7.80;99.90;;;;;;4880342;28;93806;-31
2023/12/10 03:18:32;;;;;;;10.98;5.65;;;7.80;99.90;;;;;;4880029;28;95114;-31
2023/12/10 03:20:58;;;;;;;3.63;3.03;;;7.80;99.90;;;;;;4879692;28;95387;-32
2023/12/10 03:23:23;;;;;;;8.95;4.35;;;7.80;99.90;;;;;;4881018;28;95358;-31
2023/12/10 03:25:49;;;;;;;16.40;4.75;;;7.80;99.90;;;;;;4880158;28;92586;-31
2023/12/10 03:28:15;;;;;;;18.35;5.50;;;7.80;99.90;;;;;;4879998;28;94627;-31
2023/12/10 03:30:40;;;;;;;13.30;5.28;;;7.80;99.90;;;;;;4879363;28;94689;-31
2023/12/10 03:33:06;;;;;;;16.58;5.18;;;7.80;99.90;;;;;;4879553;28;95830;-33
2023/12/10 03:35:32;;;;;;;14.73;6.00;;;7.80;99.90;;;;;;4879176;28;93089;-34
2023/12/10 03:37:57;;;;;;;12.35;3.55;;;7.80;99.90;;;;;;4879912;28;94607;-35
2023/12/10 03:40:23;;;;;;;15.07;5.10;;;7.80;99.90;;;;;;4879857;28;96140;-33
2023/12/10 03:42:49;;;;;;;5.53;2.72;;;7.80;99.90;;;;;;4880160;28;93961;-30
2023/12/10 03:45:15;;;;;;;8.18;4.63;;;7.70;99.90;;;;;;4879724;28;93048;-33
2023/12/10 03:47:46;;;;;;;13.13;4.85;;;7.70;99.90;;;;;;4879563;28;94057;-32
2023/12/10 03:50:13;;;;;;;7.30;3.67;;;7.80;99.90;;;;;;4879953;28;94906;-30
2023/12/10 03:52:39;;;;;;;9.95;4.07;;;7.70;99.90;;;;;;4880118;28;94938;-30
2023/12/10 03:55:05;;;;;;;8.30;2.92;;;7.70;99.90;;;;;;4879437;28;94151;-34
2023/12/10 03:57:31;;;;;;;11.43;3.13;;;7.70;99.90;;;;;;4879825;28;95641;-32
2023/12/10 03:59:56;;;;;;;7.18;3.45;;;7.70;99.90;;;;;;4879180;28;95523;-32
2023/12/10 04:02:22;;;;;;;11.48;5.15;;;7.60;99.90;;;;;;4880648;28;92171;-32
2023/12/10 04:04:47;;;;;;;9.65;2.67;;;7.60;99.90;;;;;;4878492;28;93837;-31
2023/12/10 04:07:13;;;;;;;6.45;3.05;;;7.60;99.90;;;;;;4879217;28;94967;-32
2023/12/10 04:09:39;;;;;;;7.07;3.67;;;7.60;99.90;;;;;;4878514;28;94988;-31
2023/12/10 04:12:05;;;;;;;5.65;4.68;;;7.60;99.90;;;;;;4880036;28;92863;-32
2023/12/10 04:14:31;;;;;;;5.40;2.42;;;7.70;99.90;;;;;;4880366;28;91543;-33
2023/12/10 04:16:56;;;;;;;8.88;2.67;;;7.60;99.90;;;;;;4879161;28;94779;-30
2023/12/10 04:19:22;;;;;;;9.70;3.67;;;7.70;99.90;;;;;;4879061;28;94735;-33
2023/12/10 04:21:48;;;;;;;6.88;2.72;;;7.60;99.90;;;;;;4878922;28;93121;-31
2023/12/10 04:24:15;;;;;;;14.05;3.33;;;7.60;99.90;;;;;;4879551;28;92526;-31
2023/12/10 04:26:41;;;;;;;9.00;4.25;;;7.60;99.90;;;;;;4879541;28;95294;-34
2023/12/10 04:29:07;;;;;;;10.20;3.35;;;7.60;99.90;;;;;;4878436;28;94323;-30
2023/12/10 04:31:32;;;;;;;6.13;2.85;;;7.60;99.90;;;;;;4879789;28;94972;-34
2023/12/10 04:33:58;;;;;;;8.60;2.60;;;7.60;99.90;;;;;;4875246;28;93386;-31
2023/12/10 04:36:24;;;;;;;4.38;1.98;;;7.60;99.90;;;;;;4879134;28;94148;-32
2023/12/10 04:38:49;;;;;;;9.80;3.10;;;7.70;99.90;;;;;;4879628;28;96170;-33
2023/12/10 04:41:15;;;;;;;7.90;3.15;;;7.70;99.90;;;;;;4878999;28;93910;-30
2023/12/10 04:43:41;;;;;;;5.03;2.55;;;7.70;99.90;;;;;;4878911;28;93247;-35
2023/12/10 04:46:06;;;;;;;6.20;2.05;;;7.70;99.90;;;;;;4877891;28;95700;-34
2023/12/10 04:48:32;;;;;;;5.40;2.95;;;7.70;99.90;;;;;;4879281;28;95416;-32
2023/12/10 04:50:59;;;;;;;6.45;2.33;;;7.70;99.90;;;;;;4879647;28;93011;-31
2023/12/10 04:53:25;;;;;;;10.30;2.38;;;7.70;99.90;;;;;;4878358;28;93215;-32
2023/12/10 04:55:50;;;;;;;6.30;2.53;;;7.70;99.90;;;;;;4879016;28;94881;-31
2023/12/10 04:58:16;;;;;;;12.02;2.92;;;7.80;99.90;;;;;;4878597;28;94447;-32
2023/12/10 05:00:43;;;;;;;4.63;2.47;;;7.80;99.90;;;;;;4879580;28;92157;-33
2023/12/10 05:03:08;;;;;;;11.15;3.35;;;7.80;99.90;;;;;;4879429;28;92722;-31
2023/12/10 05:05:35;;;;;;;7.53;2.53;;;7.80;99.90;;;;;;4879303;28;94634;-31
2023/12/10 05:08:01;;;;;;;4.15;2.25;;;7.90;99.90;;;;;;4878244;28;94877;-32
2023/12/10 05:10:26;;;;;;;16.25;3.45;;;7.90;99.90;;;;;;4878581;28;94166;-31
2023/12/10 05:12:52;;;;;;;7.03;3.25;;;7.90;99.90;;;;;;4878931;28;93219;-34
2023/12/10 05:15:18;;;;;;;9.85;2.72;;;7.90;99.90;;;;;;4879873;28;95527;-31
2023/12/10 05:17:43;;;;;;;9.18;2.92;;;7.90;99.90;;;;;;4878476;28;94708;-30
2023/12/10 05:20:09;;;;;;;6.30;3.92;;;7.90;99.90;;;;;;4874848;28;92907;-34
2023/12/10 05:22:35;;;;;;;22.83;3.58;;;7.90;99.90;;;;;;4881648;28;94595;-30
2023/12/10 05:25:01;;;;;;;13.32;3.90;;;7.90;99.90;;;;;;4881807;28;95278;-34
2023/12/10 05:27:32;;;;;;;7.03;2.85;;;7.90;99.90;;;;;;4881711;28;95042;-32
2023/12/10 05:29:58;;;;;;;8.50;3.55;;;8.00;99.90;;;;;;4882415;28;93434;-34
2023/12/10 05:32:24;;;;;;;9.40;2.63;;;7.90;99.90;;;;;;4881330;28;94438;-32
2023/12/10 05:34:51;;;;;;;5.13;2.30;;;7.90;99.90;;;;;;4880998;28;96327;-34
2023/12/10 05:37:16;;;;;;;6.85;2.40;;;8.00;99.90;;;;;;4881910;28;96044;-33
2023/12/10 05:39:42;;;;;;;10.55;3.13;;;8.00;99.90;;;;;;4882011;28;93345;-30
2023/12/10 05:42:08;;;;;;;4.57;2.15;;;8.00;99.90;;;;;;4882092;28;93647;-30
2023/12/10 05:44:33;;;;;;;6.82;2.25;;;8.00;99.90;;;;;;4881454;28;94772;-32
2023/12/10 05:46:59;;;;;;;6.22;3.40;;;8.00;99.90;;;;;;4881366;28;94709;-35
2023/12/10 05:49:24;;;;;;;9.82;3.00;;;8.00;99.90;;;;;;4882419;28;94625;-33
2023/12/10 05:51:50;;;;;;;3.13;2.30;;;8.00;99.90;;;;;;4881618;28;93580;-34
2023/12/10 05:54:16;;;;;;;7.45;2.13;;;8.00;99.90;;;;;;4881452;28;94829;-31
2023/12/10 05:56:42;;;;;;;5.45;1.75;;;8.00;99.90;;;;;;4881024;28;94602;-33
2023/12/10 05:59:08;;;;;;;5.82;2.50;;;8.00;99.90;;;;;;4881593;28;93408;-32
2023/12/10 06:01:34;;;;;;;4.22;2.13;;;8.10;99.90;;;;;;4881359;28;93786;-33
2023/12/10 06:03:59;;;;;;;6.40;1.80;;;8.10;99.90;;;;;;4895874;28;94749;-34
2023/12/10 06:06:25;;;;;;;8.18;2.50;;;8.10;99.90;;;;;;4880992;28;95539;-30
2023/12/10 06:08:51;;;;;;;7.40;2.30;;;8.10;99.90;;;;;;4881633;28;93458;-31
2023/12/10 06:11:17;;;;;;;7.45;2.58;;;8.20;99.90;;;;;;4881067;28;94192;-34
2023/12/10 06:13:42;;;;;;;3.47;1.73;;;8.20;99.90;;;;;;4881176;28;96566;-31
2023/12/10 06:16:08;;;;;;;11.27;3.30;;;8.20;99.90;;;;;;4881513;28;94999;-31
2023/12/10 06:18:34;;;;;;;10.05;3.03;;;8.10;99.90;;;;;;4881646;28;92250;-32
2023/12/10 06:21:00;;;;;;;5.90;3.08;;;8.20;99.90;;;;;;4880601;28;93198;-32
2023/12/10 06:23:25;;;;;;;4.72;2.90;;;8.20;99.90;;;;;;4880962;28;95881;-32
2023/12/10 06:25:51;;;;;;;5.28;1.70;;;8.20;99.90;;;;;;4880267;28;96247;-33
2023/12/10 06:28:17;;;;;;;8.45;3.50;;;8.20;99.90;;;;;;4881599;28;92200;-32
2023/12/10 06:30:42;;;;;;;2.78;1.90;;;8.20;99.90;;;;;;4880352;28;94188;-30
2023/12/10 06:33:08;;;;;;;14.02;3.92;;;8.20;99.90;;;;;;4879700;28;94815;-34
2023/12/10 06:35:34;;;;;;;2.65;2.45;;;8.20;99.90;;;;;;4880926;28;94926;-31
2023/12/10 06:37:59;;;;;;;5.47;1.80;;;8.20;99.90;;;;;;4881176;28;95058;-33
2023/12/10 06:40:25;;;;;;;8.77;3.42;;;8.30;99.90;;;;;;4881615;28;93311;-33
2023/12/10 06:42:50;;;;;;;4.07;1.73;;;8.20;99.90;;;;;;4880165;28;94723;-30
2023/12/10 06:45:16;;;;;;;7.85;2.28;;;8.30;99.90;;;;;;4880560;28;94572;-33
2023/12/10 06:47:42;;;;;;;15.25;4.20;;;8.30;99.90;;;;;;4880981;28;95016;-32
2023/12/10 06:50:08;;;;;;;5.60;2.75;;;8.30;99.90;;;;;;4880304;28;92473;-31
2023/12/10 06:52:34;;;;;;;9.88;3.08;;;8.30;99.90;;;;;;4881066;28;94794;-31
2023/12/10 06:55:00;;;;;;;9.00;3.40;;;8.30;99.90;;;;;;4879698;28;94492;-32
2023/12/10 06:57:25;;;;;;;5.20;2.17;;;8.30;99.90;;;;;;4880719;28;93825;-34
2023/12/10 06:59:52;;;;;;;6.15;3.63;;;8.40;99.90;;;;;;4880688;28;93976;-33
2023/12/10 07:02:18;;;;;;;7.35;3.40;;;8.30;99.90;;;;;;4880416;28;95046;-30
2023/12/10 07:04:44;;;;;;;14.27;4.05;;;8.40;99.90;;;;;;4880875;28;95141;-33
2023/12/10 07:07:10;;;;;;;8.38;3.15;;;8.40;99.90;;;;;;4880308;28;93179;-32
2023/12/10 07:09:35;;;;;;;6.85;3.28;;;8.40;99.90;;;;;;4880485;28;93435;-33
2023/12/10 07:12:02;;;;;;;9.40;2.67;;;8.40;99.90;;;;;;4879736;28;95967;-31
2023/12/10 07:14:27;;;;;;;9.63;5.30;;;8.40;99.90;;;;;;4879888;28;95678;-32
2023/12/10 07:16:53;;;;;;;13.10;3.30;;;8.40;99.90;;;;;;4881104;28;93704;-33
2023/12/10 07:19:19;;;;;;;14.60;4.00;;;8.40;99.90;;;;;;4880047;28;93580;-33
2023/12/10 07:21:44;;;;;;;14.20;3.22;;;8.40;99.90;;;;;;4880388;28;93317;-33
2023/12/10 07:24:10;;;;;;;12.23;3.33;;;8.40;99.90;;;;;;4879504;28;94980;-32
2023/12/10 07:26:36;;;;;;;9.40;2.35;;;8.40;99.90;;;;;;4880280;28;93969;-32
2023/12/10 07:29:01;;;;;;;4.75;2.92;;;8.40;99.90;;;;;;4880579;28;92420;-33
2023/12/10 07:31:27;;;;;;;7.85;2.60;;;8.40;99.90;;;;;;4880155;28;94635;-33
2023/12/10 07:33:53;;;;;;;4.57;2.65;;;8.40;99.90;;;;;;4908099;23;95184;-36
2023/12/10 07:36:18;;;;;;;9.38;2.17;;;8.40;99.90;;;;;;4859990;28;93983;-32
2023/12/10 07:38:44;;;;;;;3.63;2.25;;;8.40;99.90;;;;;;4860579;28;96016;-32
2023/12/10 07:41:10;;;;;;;4.43;2.20;;;8.30;99.90;;;;;;4860880;28;94904;-33
2023/12/10 07:43:36;;;;;;;10.30;2.10;;;8.30;99.90;;;;;;4860473;28;94914;-31
2023/12/10 07:46:01;;;;;;;5.05;1.73;;;8.30;99.90;;;;;;4861337;28;92671;-33
2023/12/10 07:48:27;;;;;;;2.70;2.30;;;8.30;99.90;;;;;;4859877;28;94291;-30
2023/12/10 07:50:53;;;;;;;5.95;1.67;;;8.30;99.90;;;;;;4860983;28;94758;-34
2023/12/10 07:53:18;;;;;;;4.63;2.22;;;8.30;99.90;;;;;;4860791;28;95177;-33
2023/12/10 07:55:44;;;;;;;5.32;2.67;;;8.30;99.90;;;;;;4860898;28;93282;-32
2023/12/10 07:58:10;;;;;;;20.33;2.65;;;8.30;99.90;;;;;;4860754;28;93301;-33
2023/12/10 08:00:35;;;;;;;9.40;2.28;;;8.30;99.90;;;;;;4859590;28;95958;-33
2023/12/10 08:03:03;;;;;;;4.50;1.70;;;8.30;99.90;;;;;;4860060;28;96371;-32
2023/12/10 08:05:28;;;;;;;1.92;1.65;;;8.30;99.90;;;;;;4860933;28;93063;-30
2023/12/10 08:07:56;;;;;;;6.43;2.65;;;8.30;99.90;;;;;;4859394;28;93180;-29
2023/12/10 08:10:22;;;;;;;3.83;2.70;;;8.30;99.90;;;;;;4861080;28;94988;-31
2023/12/10 08:12:48;;;;;;;6.32;3.22;;;8.30;99.90;;;;;;4854446;28;95057;-31
2023/12/10 08:15:13;;;;;;;5.43;1.63;;;8.30;99.90;;;;;;4860439;28;92156;-34
2023/12/10 08:17:39;;;;;;;2.92;1.98;;;8.30;99.90;;;;;;4860780;28;93965;-32
2023/12/10 08:20:06;;;;;;;4.35;2.65;;;8.30;99.90;;;;;;4860526;28;95385;-31
2023/12/10 08:22:31;;;;;;;5.35;3.08;;;8.30;99.90;;;;;;4860179;28;95661;-33
2023/12/10 08:24:57;;;;;;;6.70;2.38;;;8.30;99.90;;;;;;4859981;28;94511;-32
2023/12/10 08:27:22;;;;;;;3.83;2.35;;;8.30;99.90;;;;;;4859951;28;92653;-31
2023/12/10 08:29:48;;;;;;;11.70;2.83;;;8.30;99.90;;;;;;4860397;28;93743;-32
2023/12/10 08:32:14;;;;;;;13.68;2.40;;;8.30;99.90;;;;;;4865584;28;94638;-32
2023/12/10 08:34:40;;;;;;;11.77;2.83;;;8.30;99.90;;;;;;4860345;28;92508;-32
2023/12/10 08:37:06;;;;;;;12.95;4.97;;;8.30;99.90;;;;;;4859707;28;94514;-31
2023/12/10 08:39:32;;;;;;;4.07;1.75;;;8.30;99.90;;;;;;4860118;28;94653;-31
2023/12/10 08:41:57;;;;;;;9.43;3.50;;;8.30;99.90;;;;;;4860325;28;94349;-32
2023/12/10 08:44:25;;;;;;;7.57;2.55;;;8.30;99.90;;;;;;4860239;28;92786;-33
2023/12/10 08:46:51;;;;;;;6.00;2.23;;;8.30;99.90;;;;;;4859794;28;94484;-33
2023/12/10 08:49:17;;;;;;;4.22;2.72;;;8.30;99.90;;;;;;4859402;28;96118;-33
2023/12/10 08:51:43;;;;;;;18.98;4.82;;;8.30;99.90;;;;;;4858981;28;95973;-30
2023/12/10 08:54:09;;;;;;;4.80;2.50;;;8.30;99.90;;;;;;4870485;28;92576;-32
2023/12/10 08:56:34;;;;;;;10.55;2.22;;;8.20;99.90;;;;;;4863536;28;94284;-33
2023/12/10 08:59:00;;;;;;;5.35;2.30;;;8.20;99.90;;;;;;4862664;28;95918;-34
2023/12/10 09:01:25;;;;;;;12.73;3.10;;;8.20;99.90;;;;;;4863296;28;94666;-32
2023/12/10 09:03:51;;;;;;;8.45;4.63;;;8.20;99.90;;;;;;4862419;28;94347;-32
2023/12/10 09:06:17;;;;;;;16.65;3.90;;;8.20;99.90;;;;;;4863745;28;93561;-31
2023/12/10 09:08:42;;;;;;;19.88;3.53;;;8.20;99.90;;;;;;4863151;28;94319;-32
2023/12/10 09:11:08;;;;;;;6.82;3.10;;;8.20;99.90;;;;;;4863033;28;94916;-34
2023/12/10 09:13:37;;;;;;;7.70;3.03;;;8.20;99.90;;;;;;4863004;28;95735;-33
2023/12/10 09:16:03;;;;;;;9.88;4.00;;;8.20;99.90;;;;;;4862543;28;94047;-31
2023/12/10 09:18:29;;;;;;;10.27;3.35;;;8.20;99.90;;;;;;4862519;28;94688;-33
2023/12/10 09:20:55;;;;;;;13.15;5.32;;;8.20;99.90;;;;;;4863070;28;94780;-30
2023/12/10 09:23:21;;;;;;;6.88;3.25;;;8.20;99.90;;;;;;4863340;28;94357;-34
2023/12/10 09:25:47;;;;;;;12.13;2.67;;;8.20;99.90;;;;;;4863070;28;94390;-32
2023/12/10 09:28:13;;;;;;;12.55;4.18;;;8.20;99.90;;;;;;4862627;28;95256;-31
2023/12/10 09:30:38;;;;;;;10.57;4.30;;;8.20;99.90;;;;;;4862848;28;95298;-32
2023/12/10 09:33:07;;;;;;;14.00;5.18;;;8.20;99.90;;;;;;4862745;28;94513;-33
2023/12/10 09:35:33;;;;;;;16.38;5.07;;;8.20;99.90;;;;;;4862832;28;93345;-31
2023/12/10 09:38:00;;;;;;;9.20;2.92;;;8.20;99.90;;;;;;4859074;28;95176;-31
2023/12/10 09:40:25;;;;;;;4.88;3.95;;;8.20;99.90;;;;;;4858809;28;95788;-31
2023/12/10 09:42:51;;;;;;;12.23;5.95;;;8.20;99.90;;;;;;4857907;28;92864;-31
2023/12/10 09:45:17;;;;;;;12.50;4.75;;;8.20;99.90;;;;;;4859641;28;93961;-30
2023/12/10 09:47:44;;;;;;;18.80;5.32;;;8.20;99.90;;;;;;4860136;28;95198;-33
2023/12/10 09:50:10;;;;;;;15.03;4.50;;;8.20;99.90;;;;;;4858838;28;95363;-33
2023/12/10 09:52:36;;;;;;;12.95;3.28;;;8.20;99.90;;;;;;4860477;28;93360;-31
2023/12/10 09:55:02;;;;;;;18.55;6.28;;;8.20;99.90;;;;;;4859629;28;92276;-32
2023/12/10 09:57:30;;;;;;;13.55;5.63;;;8.20;99.90;;;;;;4857969;28;95193;-31
2023/12/10 09:59:56;;;;;;;20.67;5.45;;;8.20;99.90;;;;;;4859385;28;95039;-32
2023/12/10 10:02:29;;;;;;;22.92;5.82;;;8.30;99.90;;;;;;4859568;28;93997;-31
2023/12/10 10:04:55;;;;;;;23.85;6.65;;;8.20;99.90;;;;;;4847254;28;93081;-33
2023/12/10 10:07:21;;;;;;;22.58;5.82;;;8.20;99.90;;;;;;4859416;28;94665;-33
2023/12/10 10:09:46;;;;;;;22.02;6.03;;;8.30;99.90;;;;;;4859777;28;94455;-30
2023/12/10 10:12:13;;;;;;;21.20;5.18;;;8.30;99.90;;;;;;4860157;28;94767;-34
2023/12/10 10:14:54;;;;;;;16.00;5.55;;;8.20;99.90;;;;;;4858906;28;93642;-32
2023/12/10 10:17:30;;;;;;;22.13;6.38;;;8.30;99.90;;;;;;4859602;28;95655;-32
2023/12/10 10:19:56;;;;;;;10.88;4.90;;;8.30;99.90;;;;;;4848105;28;94738;-32
2023/12/10 10:22:26;;;;;;;26.35;6.53;;;8.30;99.90;;;;;;4859670;28;94186;-30
2023/12/10 10:24:53;;;;;;;22.70;5.30;;;8.30;99.90;;;;;;4859236;28;94761;-35
2023/12/10 10:27:18;;;;;;;15.98;5.18;;;8.30;99.90;;;;;;4858886;28;95691;-34
2023/12/10 10:29:44;;;;;;;16.67;5.15;;;8.30;99.90;;;;;;4846564;28;95474;-33
2023/12/10 10:32:16;;;;;;;22.05;6.40;;;8.30;99.90;;;;;;4859507;28;93036;-34
2023/12/10 10:34:45;;;;;;;17.52;6.75;;;8.20;99.90;;;;;;4846900;28;93307;-33
2023/12/10 10:37:10;;;;;;;22.50;5.03;;;8.30;99.90;;;;;;4858358;28;95319;-33
2023/12/10 10:39:37;;;;;;;9.68;4.93;;;8.30;99.90;;;;;;4859575;28;94321;-31
2023/12/10 10:42:07;;;;;;;13.32;5.78;;;8.30;99.90;;;;;;4858428;28;92291;-33
2023/12/10 10:44:33;;;;;;;26.42;7.60;;;8.30;99.90;;;;;;4859838;28;93413;-32
2023/12/10 10:47:00;;;;;;;22.52;6.82;;;8.30;99.90;;;;;;4858957;28;94707;-34
2023/12/10 10:49:27;;;;;;;16.33;6.20;;;8.40;99.90;;;;;;4858315;28;94551;-34
2023/12/10 10:51:54;;;;;;;18.80;6.00;;;8.40;99.90;;;;;;4858629;28;93108;-35
2023/12/10 10:54:22;;;;;;;17.63;5.53;;;8.40;99.90;;;;;;4858311;28;93256;-32
2023/12/10 10:56:49;;;;;;;13.87;6.30;;;8.40;99.90;;;;;;4858891;28;95895;-32
2023/12/10 10:59:31;;;;;;;9.60;3.75;;;8.40;99.90;;;;;;4858914;28;94618;-29
2023/12/10 11:02:07;;;;;;;16.92;5.57;;;8.40;99.90;;;;;;4858340;28;93848;-34
2023/12/10 11:04:40;;;;;;;23.05;5.55;;;8.40;99.90;;;;;;4858604;28;94245;-32
2023/12/10 11:07:06;;;;;;;22.42;7.45;;;8.40;99.90;;;;;;4857764;28;94833;-33
2023/12/10 11:09:52;;;;;;;20.50;4.40;;;8.40;99.90;;;;;;4858893;28;95161;-29
2023/12/10 11:12:44;;;;;;;18.17;4.55;;;8.40;99.90;;;;;;4858318;28;94200;-33
2023/12/10 11:15:18;;;;;;;25.88;5.57;;;8.40;99.90;;;;;;4848797;28;93998;-34
2023/12/10 11:17:53;;;;;;;11.13;5.45;;;8.40;99.90;;;;;;4857104;28;95960;-32
2023/12/10 11:20:49;;;;;;;12.65;5.25;;;8.40;99.90;;;;;;4859047;28;96444;-34
2023/12/10 11:23:17;;;;;;;15.23;6.15;;;8.40;99.90;;;;;;4857540;28;93114;-34
2023/12/10 11:25:44;;;;;;;18.00;5.40;;;8.30;99.90;;;;;;4858565;28;94068;-34
2023/12/10 11:28:11;;;;;;;24.20;5.95;;;8.40;99.90;;;;;;4857492;28;95298;-33
2023/12/10 11:30:39;;;;;;;9.47;5.27;;;8.30;99.90;;;;;;4857547;28;95079;-33
2023/12/10 11:33:05;;;;;;;19.47;5.23;;;8.40;99.90;;;;;;4858585;28;93971;-31
2023/12/10 11:35:32;;;;;;;12.82;4.85;;;8.40;99.90;;;;;;4852569;28;92068;-32
2023/12/10 11:37:58;;;;;;;16.02;4.78;;;8.30;99.90;;;;;;4858119;28;95299;-34
2023/12/10 11:40:24;;;;;;;20.40;6.18;;;8.30;99.90;;;;;;4858417;28;94714;-32
2023/12/10 11:42:49;;;;;;;18.83;4.72;;;8.30;99.90;;;;;;4855534;28;94663;-33
2023/12/10 11:45:15;;;;;;;14.90;4.60;;;8.30;99.90;;;;;;4858281;28;92485;-31
2023/12/10 11:47:46;;;;;;;11.10;4.10;;;8.30;99.90;;;;;;4858133;28;95239;-31
2023/12/10 11:50:13;;;;;;;11.60;4.72;;;8.30;99.90;;;;;;4858677;28;96795;-32
2023/12/10 11:52:42;;;;;;;17.77;5.25;;;8.40;99.90;;;;;;4857815;28;92860;-30
2023/12/10 11:55:08;;;;;;;14.18;4.60;;;8.40;99.90;;;;;;4857235;28;94850;-33
2023/12/10 11:57:39;;;;;;;13.13;5.32;;;8.40;99.90;;;;;;4858096;28;95200;-35
2023/12/10 12:00:05;;;;;;;31.10;7.55;;;8.40;99.90;;;;;;4857984;28;94477;-32
2023/12/10 12:02:31;;;;;;;14.05;4.18;;;8.40;99.90;;;;;;4858929;28;94913;-31
2023/12/10 12:04:57;;;;;;;17.35;5.97;;;8.50;99.90;;;;;;4857536;28;93382;-34
2023/12/10 12:07:24;;;;;;;19.92;5.90;;;8.50;99.90;;;;;;4857432;28;96166;-35
2023/12/10 12:09:51;;;;;;;27.35;5.00;;;8.50;99.90;;;;;;4857776;28;95065;-31
2023/12/10 12:12:20;;;;;;;15.82;7.15;;;8.50;99.90;;;;;;4858160;28;94583;-31
2023/12/10 12:14:47;;;;;;;10.63;4.60;;;8.50;99.90;;;;;;4857456;28;93248;-34
2023/12/10 12:17:15;;;;;;;16.55;5.22;;;8.50;99.90;;;;;;4858030;28;95325;-33
2023/12/10 12:19:41;;;;;;;22.38;5.78;;;8.50;99.90;;;;;;4858096;28;93927;-31
2023/12/10 12:22:06;;;;;;;12.05;5.25;;;8.50;99.90;;;;;;4858071;28;95164;-32
2023/12/10 12:24:32;;;;;;;20.05;5.20;;;8.50;99.90;;;;;;4857049;28;92659;-34
2023/12/10 12:26:57;;;;;;;13.50;4.75;;;8.50;99.90;;;;;;4857769;28;95273;-34
2023/12/10 12:29:23;;;;;;;18.05;5.32;;;8.50;99.90;;;;;;4856179;28;94614;-34
2023/12/10 12:31:49;;;;;;;17.33;5.72;;;8.50;99.90;;;;;;4857793;28;95577;-32
2023/12/10 12:34:14;;;;;;;29.50;7.18;;;8.50;99.90;;;;;;4856135;28;93916;-30
2023/12/10 12:36:40;;;;;;;12.32;4.55;;;8.50;99.90;;;;;;4856986;28;95129;-33
2023/12/10 12:39:06;;;;;;;31.60;5.63;;;8.50;99.90;;;;;;4856898;28;94573;-32
2023/12/10 12:41:31;;;;;;;12.32;3.75;;;8.50;99.90;;;;;;4856681;28;94788;-33
2023/12/10 12:43:57;;;;;;;11.07;4.57;;;8.60;99.90;;;;;;4855567;28;94592;-32
2023/12/10 12:46:23;;;;;;;6.65;3.72;;;8.60;99.90;;;;;;4856878;28;94688;-31